sensor_id;sensor_type;location;lat;lon;timestamp;P1;durP1;ratioP1;P2;durP2;ratioP2
3329;SDS011;1677;49.576;10.990;2022-12-07T00:01:36;5.43;;;4.82;;
3329;SDS011;1677;49.576;10.990;2022-12-07T00:04:04;7.57;;;6.43;;
3329;SDS011;1677;49.576;10.990;2022-12-07T00:07:13;5.97;;;5.05;;
3329;SDS011;1677;49.576;10.990;2022-12-07T00:09:19;6.22;;;5.63;;
3329;SDS011;1677;49.576;10.990;2022-12-07T00:11:47;8.00;;;6.67;;
3329;SDS011;1677;49.576;10.990;2022-12-07T00:14:15;8.75;;;5.95;;
3329;SDS011;1677;49.576;10.990;2022-12-07T00:16:41;6.75;;;5.70;;
3329;SDS011;1677;49.576;10.990;2022-12-07T00:19:08;6.90;;;5.80;;
3329;SDS011;1677;49.576;10.990;2022-12-07T00:21:35;6.53;;;5.88;;
3329;SDS011;1677;49.576;10.990;2022-12-07T00:24:01;9.98;;;6.22;;
3329;SDS011;1677;49.576;10.990;2022-12-07T00:26:29;6.93;;;6.00;;
3329;SDS011;1677;49.576;10.990;2022-12-07T00:28:58;5.55;;;5.00;;
3329;SDS011;1677;49.576;10.990;2022-12-07T00:31:26;9.15;;;6.13;;
3329;SDS011;1677;49.576;10.990;2022-12-07T00:33:54;7.00;;;6.30;;
3329;SDS011;1677;49.576;10.990;2022-12-07T00:36:21;8.05;;;6.30;;
3329;SDS011;1677;49.576;10.990;2022-12-07T00:38:47;7.85;;;5.88;;
3329;SDS011;1677;49.576;10.990;2022-12-07T00:41:17;6.20;;;5.50;;
3329;SDS011;1677;49.576;10.990;2022-12-07T00:43:44;7.43;;;5.80;;
3329;SDS011;1677;49.576;10.990;2022-12-07T00:46:11;6.97;;;6.10;;
3329;SDS011;1677;49.576;10.990;2022-12-07T00:48:38;8.20;;;5.70;;
3329;SDS011;1677;49.576;10.990;2022-12-07T00:51:04;10.40;;;5.50;;
3329;SDS011;1677;49.576;10.990;2022-12-07T00:53:31;9.30;;;6.13;;
3329;SDS011;1677;49.576;10.990;2022-12-07T00:56:04;7.47;;;6.13;;
3329;SDS011;1677;49.576;10.990;2022-12-07T00:58:34;10.30;;;6.95;;
3329;SDS011;1677;49.576;10.990;2022-12-07T01:01:03;8.60;;;6.30;;
3329;SDS011;1677;49.576;10.990;2022-12-07T01:03:29;8.07;;;6.35;;
3329;SDS011;1677;49.576;10.990;2022-12-07T01:05:55;8.20;;;6.20;;
3329;SDS011;1677;49.576;10.990;2022-12-07T01:08:21;6.55;;;5.15;;
3329;SDS011;1677;49.576;10.990;2022-12-07T01:10:48;6.30;;;5.50;;
3329;SDS011;1677;49.576;10.990;2022-12-07T01:13:14;6.10;;;5.50;;
3329;SDS011;1677;49.576;10.990;2022-12-07T01:15:40;7.97;;;6.47;;
3329;SDS011;1677;49.576;10.990;2022-12-07T01:18:07;7.03;;;5.80;;
3329;SDS011;1677;49.576;10.990;2022-12-07T01:20:32;7.97;;;5.70;;
3329;SDS011;1677;49.576;10.990;2022-12-07T01:22:58;7.83;;;5.97;;
3329;SDS011;1677;49.576;10.990;2022-12-07T01:25:23;8.60;;;6.73;;
3329;SDS011;1677;49.576;10.990;2022-12-07T01:27:49;9.60;;;7.10;;
3329;SDS011;1677;49.576;10.990;2022-12-07T01:30:14;7.93;;;7.13;;
3329;SDS011;1677;49.576;10.990;2022-12-07T01:32:40;8.73;;;6.80;;
3329;SDS011;1677;49.576;10.990;2022-12-07T01:35:05;8.00;;;6.43;;
3329;SDS011;1677;49.576;10.990;2022-12-07T01:37:38;8.77;;;6.93;;
3329;SDS011;1677;49.576;10.990;2022-12-07T01:40:05;10.05;;;7.10;;
3329;SDS011;1677;49.576;10.990;2022-12-07T01:42:31;9.23;;;6.80;;
3329;SDS011;1677;49.576;10.990;2022-12-07T01:48:00;7.65;;;6.85;;
3329;SDS011;1677;49.576;10.990;2022-12-07T01:50:27;7.80;;;6.78;;
3329;SDS011;1677;49.576;10.990;2022-12-07T01:52:56;8.73;;;6.60;;
3329;SDS011;1677;49.576;10.990;2022-12-07T01:55:24;8.35;;;7.13;;
3329;SDS011;1677;49.576;10.990;2022-12-07T01:57:52;11.35;;;8.38;;
3329;SDS011;1677;49.576;10.990;2022-12-07T02:00:19;8.82;;;7.30;;
3329;SDS011;1677;49.576;10.990;2022-12-07T02:02:49;7.73;;;6.10;;
3329;SDS011;1677;49.576;10.990;2022-12-07T02:05:29;8.40;;;6.88;;
3329;SDS011;1677;49.576;10.990;2022-12-07T02:07:56;9.05;;;7.43;;
3329;SDS011;1677;49.576;10.990;2022-12-07T02:10:24;8.95;;;7.45;;
3329;SDS011;1677;49.576;10.990;2022-12-07T02:12:53;7.35;;;6.18;;
3329;SDS011;1677;49.576;10.990;2022-12-07T02:15:34;8.65;;;7.20;;
3329;SDS011;1677;49.576;10.990;2022-12-07T02:18:28;10.82;;;6.95;;
3329;SDS011;1677;49.576;10.990;2022-12-07T02:21:07;9.82;;;7.65;;
3329;SDS011;1677;49.576;10.990;2022-12-07T02:26:44;9.15;;;7.18;;
3329;SDS011;1677;49.576;10.990;2022-12-07T02:29:36;8.15;;;7.30;;
3329;SDS011;1677;49.576;10.990;2022-12-07T02:40:29;9.05;;;7.32;;
3329;SDS011;1677;49.576;10.990;2022-12-07T02:43:24;8.40;;;6.63;;
3329;SDS011;1677;49.576;10.990;2022-12-07T02:45:53;9.40;;;7.05;;
3329;SDS011;1677;49.576;10.990;2022-12-07T02:48:23;11.00;;;7.05;;
3329;SDS011;1677;49.576;10.990;2022-12-07T02:50:51;10.57;;;7.72;;
3329;SDS011;1677;49.576;10.990;2022-12-07T03:10:14;12.23;;;8.10;;
3329;SDS011;1677;49.576;10.990;2022-12-07T03:16:02;12.75;;;8.48;;
3329;SDS011;1677;49.576;10.990;2022-12-07T03:18:56;11.23;;;7.75;;
3329;SDS011;1677;49.576;10.990;2022-12-07T03:21:27;10.65;;;8.48;;
3329;SDS011;1677;49.576;10.990;2022-12-07T03:23:58;11.82;;;8.07;;
3329;SDS011;1677;49.576;10.990;2022-12-07T03:26:30;11.35;;;8.02;;
3329;SDS011;1677;49.576;10.990;2022-12-07T03:28:59;12.32;;;8.60;;
3329;SDS011;1677;49.576;10.990;2022-12-07T03:31:33;14.82;;;8.25;;
3329;SDS011;1677;49.576;10.990;2022-12-07T03:36:50;11.65;;;7.85;;
3329;SDS011;1677;49.576;10.990;2022-12-07T03:41:58;11.60;;;8.52;;
3329;SDS011;1677;49.576;10.990;2022-12-07T03:44:25;10.98;;;8.18;;
3329;SDS011;1677;49.576;10.990;2022-12-07T03:53:05;13.32;;;7.85;;
3329;SDS011;1677;49.576;10.990;2022-12-07T03:55:37;10.43;;;7.85;;
3329;SDS011;1677;49.576;10.990;2022-12-07T03:58:08;11.52;;;8.43;;
3329;SDS011;1677;49.576;10.990;2022-12-07T04:00:36;11.18;;;7.80;;
3329;SDS011;1677;49.576;10.990;2022-12-07T04:03:02;12.07;;;8.30;;
3329;SDS011;1677;49.576;10.990;2022-12-07T04:05:27;8.90;;;7.43;;
3329;SDS011;1677;49.576;10.990;2022-12-07T04:07:53;11.80;;;7.60;;
3329;SDS011;1677;49.576;10.990;2022-12-07T04:10:18;9.53;;;7.77;;
3329;SDS011;1677;49.576;10.990;2022-12-07T04:12:44;11.70;;;8.40;;
3329;SDS011;1677;49.576;10.990;2022-12-07T04:15:10;9.53;;;7.80;;
3329;SDS011;1677;49.576;10.990;2022-12-07T04:17:36;12.97;;;8.77;;
3329;SDS011;1677;49.576;10.990;2022-12-07T04:20:02;17.33;;;10.80;;
3329;SDS011;1677;49.576;10.990;2022-12-07T04:22:29;12.65;;;8.43;;
3329;SDS011;1677;49.576;10.990;2022-12-07T04:24:54;14.67;;;11.03;;
3329;SDS011;1677;49.576;10.990;2022-12-07T04:27:20;13.50;;;8.97;;
3329;SDS011;1677;49.576;10.990;2022-12-07T04:29:45;12.20;;;8.47;;
3329;SDS011;1677;49.576;10.990;2022-12-07T04:32:11;15.47;;;10.77;;
3329;SDS011;1677;49.576;10.990;2022-12-07T04:34:36;13.67;;;9.23;;
3329;SDS011;1677;49.576;10.990;2022-12-07T04:37:02;14.97;;;9.60;;
3329;SDS011;1677;49.576;10.990;2022-12-07T04:39:28;15.00;;;9.40;;
3329;SDS011;1677;49.576;10.990;2022-12-07T04:41:55;14.45;;;9.98;;
3329;SDS011;1677;49.576;10.990;2022-12-07T04:44:22;11.68;;;9.45;;
3329;SDS011;1677;49.576;10.990;2022-12-07T04:46:49;12.40;;;9.60;;
3329;SDS011;1677;49.576;10.990;2022-12-07T04:49:15;14.80;;;9.02;;
3329;SDS011;1677;49.576;10.990;2022-12-07T04:51:41;15.60;;;9.07;;
3329;SDS011;1677;49.576;10.990;2022-12-07T04:54:07;15.57;;;10.25;;
3329;SDS011;1677;49.576;10.990;2022-12-07T04:56:33;14.00;;;9.55;;
3329;SDS011;1677;49.576;10.990;2022-12-07T04:59:00;17.40;;;9.98;;
3329;SDS011;1677;49.576;10.990;2022-12-07T05:01:26;19.50;;;10.25;;
3329;SDS011;1677;49.576;10.990;2022-12-07T05:03:52;17.30;;;10.00;;
3329;SDS011;1677;49.576;10.990;2022-12-07T05:06:18;15.23;;;8.90;;
3329;SDS011;1677;49.576;10.990;2022-12-07T05:08:44;12.82;;;8.77;;
3329;SDS011;1677;49.576;10.990;2022-12-07T05:11:10;13.53;;;9.50;;
3329;SDS011;1677;49.576;10.990;2022-12-07T05:13:56;12.27;;;9.48;;
3329;SDS011;1677;49.576;10.990;2022-12-07T05:16:22;15.30;;;10.10;;
3329;SDS011;1677;49.576;10.990;2022-12-07T05:18:48;14.70;;;10.40;;
3329;SDS011;1677;49.576;10.990;2022-12-07T05:21:13;14.30;;;10.13;;
3329;SDS011;1677;49.576;10.990;2022-12-07T05:23:39;13.80;;;9.60;;
3329;SDS011;1677;49.576;10.990;2022-12-07T05:26:04;14.00;;;9.80;;
3329;SDS011;1677;49.576;10.990;2022-12-07T05:28:30;16.60;;;11.00;;
3329;SDS011;1677;49.576;10.990;2022-12-07T05:30:55;13.70;;;9.70;;
3329;SDS011;1677;49.576;10.990;2022-12-07T05:33:21;16.27;;;9.67;;
3329;SDS011;1677;49.576;10.990;2022-12-07T05:35:46;15.17;;;9.70;;
3329;SDS011;1677;49.576;10.990;2022-12-07T05:38:12;15.27;;;9.77;;
3329;SDS011;1677;49.576;10.990;2022-12-07T05:40:38;13.33;;;10.03;;
3329;SDS011;1677;49.576;10.990;2022-12-07T05:43:03;16.20;;;11.03;;
3329;SDS011;1677;49.576;10.990;2022-12-07T05:45:29;15.83;;;10.23;;
3329;SDS011;1677;49.576;10.990;2022-12-07T05:47:54;14.83;;;9.83;;
3329;SDS011;1677;49.576;10.990;2022-12-07T05:50:20;14.33;;;10.47;;
3329;SDS011;1677;49.576;10.990;2022-12-07T05:52:45;18.20;;;11.03;;
3329;SDS011;1677;49.576;10.990;2022-12-07T05:55:11;19.77;;;10.60;;
3329;SDS011;1677;49.576;10.990;2022-12-07T05:57:36;18.53;;;10.50;;
3329;SDS011;1677;49.576;10.990;2022-12-07T06:00:03;15.80;;;10.73;;
3329;SDS011;1677;49.576;10.990;2022-12-07T06:02:29;15.32;;;9.27;;
3329;SDS011;1677;49.576;10.990;2022-12-07T06:04:54;12.07;;;9.10;;
3329;SDS011;1677;49.576;10.990;2022-12-07T06:07:20;16.00;;;10.50;;
3329;SDS011;1677;49.576;10.990;2022-12-07T06:09:46;15.63;;;10.13;;
3329;SDS011;1677;49.576;10.990;2022-12-07T06:12:12;15.93;;;11.97;;
3329;SDS011;1677;49.576;10.990;2022-12-07T06:14:56;17.23;;;9.88;;
3329;SDS011;1677;49.576;10.990;2022-12-07T06:17:22;16.15;;;9.20;;
3329;SDS011;1677;49.576;10.990;2022-12-07T06:19:47;14.03;;;9.80;;
3329;SDS011;1677;49.576;10.990;2022-12-07T06:22:13;16.43;;;10.73;;
3329;SDS011;1677;49.576;10.990;2022-12-07T06:24:40;17.95;;;11.00;;
3329;SDS011;1677;49.576;10.990;2022-12-07T06:27:06;17.97;;;10.70;;
3329;SDS011;1677;49.576;10.990;2022-12-07T06:29:32;19.00;;;10.83;;
3329;SDS011;1677;49.576;10.990;2022-12-07T06:31:58;13.13;;;8.80;;
3329;SDS011;1677;49.576;10.990;2022-12-07T06:34:24;17.03;;;9.20;;
3329;SDS011;1677;49.576;10.990;2022-12-07T06:36:50;17.00;;;10.40;;
3329;SDS011;1677;49.576;10.990;2022-12-07T06:39:18;16.23;;;10.38;;
3329;SDS011;1677;49.576;10.990;2022-12-07T06:41:45;14.27;;;10.63;;
3329;SDS011;1677;49.576;10.990;2022-12-07T06:44:10;13.67;;;8.63;;
3329;SDS011;1677;49.576;10.990;2022-12-07T06:46:36;16.63;;;10.07;;
3329;SDS011;1677;49.576;10.990;2022-12-07T06:49:02;14.60;;;9.50;;
3329;SDS011;1677;49.576;10.990;2022-12-07T06:51:29;13.68;;;9.02;;
3329;SDS011;1677;49.576;10.990;2022-12-07T06:53:56;15.30;;;10.02;;
3329;SDS011;1677;49.576;10.990;2022-12-07T06:56:21;17.50;;;11.13;;
3329;SDS011;1677;49.576;10.990;2022-12-07T06:58:47;17.20;;;10.25;;
3329;SDS011;1677;49.576;10.990;2022-12-07T07:01:14;15.73;;;10.43;;
3329;SDS011;1677;49.576;10.990;2022-12-07T07:03:41;15.02;;;9.10;;
3329;SDS011;1677;49.576;10.990;2022-12-07T07:06:08;15.88;;;9.07;;
3329;SDS011;1677;49.576;10.990;2022-12-07T07:08:34;13.10;;;8.73;;
3329;SDS011;1677;49.576;10.990;2022-12-07T07:11:01;15.82;;;9.38;;
3329;SDS011;1677;49.576;10.990;2022-12-07T07:13:27;13.53;;;8.90;;
3329;SDS011;1677;49.576;10.990;2022-12-07T07:15:52;15.27;;;9.83;;
3329;SDS011;1677;49.576;10.990;2022-12-07T07:18:19;17.35;;;10.15;;
3329;SDS011;1677;49.576;10.990;2022-12-07T07:20:44;15.67;;;10.37;;
3329;SDS011;1677;49.576;10.990;2022-12-07T07:23:10;14.87;;;10.63;;
3329;SDS011;1677;49.576;10.990;2022-12-07T07:25:35;17.30;;;10.27;;
3329;SDS011;1677;49.576;10.990;2022-12-07T07:28:01;16.73;;;10.20;;
3329;SDS011;1677;49.576;10.990;2022-12-07T07:30:27;18.58;;;9.23;;
3329;SDS011;1677;49.576;10.990;2022-12-07T07:32:56;11.93;;;9.27;;
3329;SDS011;1677;49.576;10.990;2022-12-07T07:35:23;12.55;;;9.25;;
3329;SDS011;1677;49.576;10.990;2022-12-07T07:37:49;19.33;;;10.25;;
3329;SDS011;1677;49.576;10.990;2022-12-07T07:40:15;17.47;;;10.17;;
3329;SDS011;1677;49.576;10.990;2022-12-07T07:42:40;16.47;;;11.40;;
3329;SDS011;1677;49.576;10.990;2022-12-07T07:45:06;15.60;;;10.47;;
3329;SDS011;1677;49.576;10.990;2022-12-07T07:47:32;17.38;;;11.40;;
3329;SDS011;1677;49.576;10.990;2022-12-07T07:49:58;13.70;;;8.93;;
3329;SDS011;1677;49.576;10.990;2022-12-07T07:52:23;18.27;;;10.30;;
3329;SDS011;1677;49.576;10.990;2022-12-07T07:54:49;18.27;;;11.57;;
3329;SDS011;1677;49.576;10.990;2022-12-07T07:57:15;18.73;;;10.90;;
3329;SDS011;1677;49.576;10.990;2022-12-07T07:59:41;14.98;;;8.95;;
3329;SDS011;1677;49.576;10.990;2022-12-07T08:02:09;12.60;;;9.23;;
3329;SDS011;1677;49.576;10.990;2022-12-07T08:04:39;16.80;;;10.30;;
3329;SDS011;1677;49.576;10.990;2022-12-07T08:07:05;13.50;;;9.57;;
3329;SDS011;1677;49.576;10.990;2022-12-07T08:09:30;17.20;;;9.20;;
3329;SDS011;1677;49.576;10.990;2022-12-07T08:11:56;15.20;;;10.90;;
3329;SDS011;1677;49.576;10.990;2022-12-07T08:14:22;11.85;;;8.15;;
3329;SDS011;1677;49.576;10.990;2022-12-07T08:16:49;12.52;;;9.43;;
3329;SDS011;1677;49.576;10.990;2022-12-07T08:19:14;12.67;;;8.40;;
3329;SDS011;1677;49.576;10.990;2022-12-07T08:21:40;12.37;;;8.27;;
3329;SDS011;1677;49.576;10.990;2022-12-07T08:24:05;14.33;;;9.13;;
3329;SDS011;1677;49.576;10.990;2022-12-07T08:26:31;11.43;;;7.60;;
3329;SDS011;1677;49.576;10.990;2022-12-07T08:28:56;11.77;;;9.50;;
3329;SDS011;1677;49.576;10.990;2022-12-07T08:31:22;16.93;;;9.80;;
3329;SDS011;1677;49.576;10.990;2022-12-07T08:33:48;12.80;;;9.20;;
3329;SDS011;1677;49.576;10.990;2022-12-07T08:36:14;12.85;;;8.45;;
3329;SDS011;1677;49.576;10.990;2022-12-07T08:38:40;14.10;;;9.48;;
3329;SDS011;1677;49.576;10.990;2022-12-07T08:41:07;13.60;;;8.50;;
3329;SDS011;1677;49.576;10.990;2022-12-07T08:43:33;10.93;;;7.65;;
3329;SDS011;1677;49.576;10.990;2022-12-07T08:48:34;16.05;;;8.88;;
3329;SDS011;1677;49.576;10.990;2022-12-07T08:51:04;10.50;;;7.68;;
3329;SDS011;1677;49.576;10.990;2022-12-07T08:53:29;12.33;;;8.07;;
3329;SDS011;1677;49.576;10.990;2022-12-07T08:55:55;13.70;;;9.73;;
3329;SDS011;1677;49.576;10.990;2022-12-07T08:58:22;10.77;;;7.88;;
3329;SDS011;1677;49.576;10.990;2022-12-07T09:00:48;13.95;;;8.02;;
3329;SDS011;1677;49.576;10.990;2022-12-07T09:03:13;12.00;;;7.63;;
3329;SDS011;1677;49.576;10.990;2022-12-07T09:05:39;10.40;;;8.70;;
3329;SDS011;1677;49.576;10.990;2022-12-07T09:08:04;9.80;;;7.47;;
3329;SDS011;1677;49.576;10.990;2022-12-07T09:10:31;12.23;;;7.85;;
3329;SDS011;1677;49.576;10.990;2022-12-07T09:12:57;12.27;;;7.57;;
3329;SDS011;1677;49.576;10.990;2022-12-07T09:15:27;8.63;;;7.00;;
3329;SDS011;1677;49.576;10.990;2022-12-07T09:17:53;10.60;;;8.00;;
3329;SDS011;1677;49.576;10.990;2022-12-07T09:20:18;16.20;;;9.60;;
3329;SDS011;1677;49.576;10.990;2022-12-07T09:22:44;12.17;;;8.07;;
3329;SDS011;1677;49.576;10.990;2022-12-07T09:25:10;11.97;;;8.03;;
3329;SDS011;1677;49.576;10.990;2022-12-07T09:27:35;9.93;;;7.97;;
3329;SDS011;1677;49.576;10.990;2022-12-07T09:30:01;12.67;;;9.70;;
3329;SDS011;1677;49.576;10.990;2022-12-07T09:32:28;12.90;;;8.80;;
3329;SDS011;1677;49.576;10.990;2022-12-07T09:34:53;10.80;;;8.73;;
3329;SDS011;1677;49.576;10.990;2022-12-07T09:37:19;9.10;;;7.43;;
3329;SDS011;1677;49.576;10.990;2022-12-07T09:39:44;12.40;;;9.93;;
3329;SDS011;1677;49.576;10.990;2022-12-07T09:42:10;11.87;;;8.30;;
3329;SDS011;1677;49.576;10.990;2022-12-07T09:45:01;12.15;;;8.45;;
3329;SDS011;1677;49.576;10.990;2022-12-07T09:47:30;13.05;;;9.02;;
3329;SDS011;1677;49.576;10.990;2022-12-07T09:50:04;13.67;;;9.57;;
3329;SDS011;1677;49.576;10.990;2022-12-07T09:52:32;14.85;;;9.65;;
3329;SDS011;1677;49.576;10.990;2022-12-07T09:54:58;14.13;;;9.10;;
3329;SDS011;1677;49.576;10.990;2022-12-07T09:57:33;12.73;;;8.80;;
3329;SDS011;1677;49.576;10.990;2022-12-07T10:00:03;13.23;;;9.10;;
3329;SDS011;1677;49.576;10.990;2022-12-07T10:02:40;14.45;;;8.52;;
3329;SDS011;1677;49.576;10.990;2022-12-07T10:05:10;14.65;;;9.30;;
3329;SDS011;1677;49.576;10.990;2022-12-07T10:07:39;13.73;;;9.18;;
3329;SDS011;1677;49.576;10.990;2022-12-07T10:10:15;11.37;;;8.50;;
3329;SDS011;1677;49.576;10.990;2022-12-07T10:12:56;11.82;;;9.27;;
3329;SDS011;1677;49.576;10.990;2022-12-07T10:18:36;14.18;;;9.07;;
3329;SDS011;1677;49.576;10.990;2022-12-07T10:21:19;11.10;;;8.77;;
3329;SDS011;1677;49.576;10.990;2022-12-07T10:24:02;13.27;;;9.05;;
3329;SDS011;1677;49.576;10.990;2022-12-07T10:29:17;11.60;;;7.68;;
3329;SDS011;1677;49.576;10.990;2022-12-07T10:31:44;10.98;;;8.73;;
3329;SDS011;1677;49.576;10.990;2022-12-07T10:34:24;13.63;;;8.32;;
3329;SDS011;1677;49.576;10.990;2022-12-07T10:36:53;12.27;;;8.05;;
3329;SDS011;1677;49.576;10.990;2022-12-07T10:39:31;11.00;;;7.85;;
3329;SDS011;1677;49.576;10.990;2022-12-07T10:42:25;15.93;;;8.35;;
3329;SDS011;1677;49.576;10.990;2022-12-07T11:04:34;13.60;;;10.20;;
3329;SDS011;1677;49.576;10.990;2022-12-07T11:10:13;11.13;;;8.02;;
3329;SDS011;1677;49.576;10.990;2022-12-07T11:13:04;11.30;;;7.82;;
3329;SDS011;1677;49.576;10.990;2022-12-07T11:16:15;10.70;;;7.65;;
3329;SDS011;1677;49.576;10.990;2022-12-07T11:19:20;12.27;;;9.85;;
3329;SDS011;1677;49.576;10.990;2022-12-07T11:21:56;13.48;;;9.95;;
3329;SDS011;1677;49.576;10.990;2022-12-07T11:24:32;12.60;;;9.07;;
3329;SDS011;1677;49.576;10.990;2022-12-07T11:32:53;9.82;;;8.30;;
3329;SDS011;1677;49.576;10.990;2022-12-07T11:35:40;8.25;;;7.20;;
3329;SDS011;1677;49.576;10.990;2022-12-07T11:38:32;16.17;;;8.38;;
3329;SDS011;1677;49.576;10.990;2022-12-07T11:41:10;9.90;;;7.60;;
3329;SDS011;1677;49.576;10.990;2022-12-07T11:43:37;11.07;;;8.88;;
3329;SDS011;1677;49.576;10.990;2022-12-07T11:46:15;10.90;;;7.40;;
3329;SDS011;1677;49.576;10.990;2022-12-07T11:48:44;9.85;;;7.05;;
3329;SDS011;1677;49.576;10.990;2022-12-07T11:51:23;11.32;;;8.02;;
3329;SDS011;1677;49.576;10.990;2022-12-07T11:53:55;13.27;;;9.30;;
3329;SDS011;1677;49.576;10.990;2022-12-07T11:56:27;10.75;;;7.95;;
3329;SDS011;1677;49.576;10.990;2022-12-07T11:58:55;10.40;;;8.18;;
3329;SDS011;1677;49.576;10.990;2022-12-07T12:06:34;8.88;;;6.88;;
3329;SDS011;1677;49.576;10.990;2022-12-07T12:09:09;10.95;;;8.48;;
3329;SDS011;1677;49.576;10.990;2022-12-07T12:14:48;15.15;;;9.52;;
3329;SDS011;1677;49.576;10.990;2022-12-07T12:17:37;10.73;;;8.48;;
3329;SDS011;1677;49.576;10.990;2022-12-07T12:20:14;9.63;;;8.13;;
3329;SDS011;1677;49.576;10.990;2022-12-07T12:22:50;11.20;;;8.52;;
3329;SDS011;1677;49.576;10.990;2022-12-07T12:25:29;10.20;;;8.07;;
3329;SDS011;1677;49.576;10.990;2022-12-07T12:28:03;14.55;;;9.65;;
3329;SDS011;1677;49.576;10.990;2022-12-07T12:30:31;12.83;;;7.80;;
3329;SDS011;1677;49.576;10.990;2022-12-07T12:33:03;11.35;;;9.13;;
3329;SDS011;1677;49.576;10.990;2022-12-07T12:35:39;10.90;;;7.80;;
3329;SDS011;1677;49.576;10.990;2022-12-07T12:40:52;8.90;;;7.32;;
3329;SDS011;1677;49.576;10.990;2022-12-07T12:51:44;9.93;;;7.10;;
3329;SDS011;1677;49.576;10.990;2022-12-07T12:56:46;9.07;;;7.25;;
3329;SDS011;1677;49.576;10.990;2022-12-07T13:01:46;13.02;;;9.25;;
3329;SDS011;1677;49.576;10.990;2022-12-07T13:04:25;10.15;;;7.75;;
3329;SDS011;1677;49.576;10.990;2022-12-07T13:06:59;9.82;;;8.13;;
3329;SDS011;1677;49.576;10.990;2022-12-07T13:09:31;12.83;;;8.50;;
3329;SDS011;1677;49.576;10.990;2022-12-07T13:12:03;9.43;;;7.38;;
3329;SDS011;1677;49.576;10.990;2022-12-07T13:17:04;11.55;;;7.95;;
3329;SDS011;1677;49.576;10.990;2022-12-07T13:28:10;10.40;;;6.97;;
3329;SDS011;1677;49.576;10.990;2022-12-07T13:30:57;12.05;;;7.20;;
3329;SDS011;1677;49.576;10.990;2022-12-07T13:33:35;8.35;;;7.55;;
3329;SDS011;1677;49.576;10.990;2022-12-07T13:36:01;12.75;;;8.10;;
3329;SDS011;1677;49.576;10.990;2022-12-07T13:38:28;10.50;;;7.38;;
3329;SDS011;1677;49.576;10.990;2022-12-07T13:41:00;12.40;;;8.30;;
3329;SDS011;1677;49.576;10.990;2022-12-07T13:43:30;8.75;;;6.72;;
3329;SDS011;1677;49.576;10.990;2022-12-07T13:45:59;10.77;;;7.33;;
3329;SDS011;1677;49.576;10.990;2022-12-07T13:48:32;9.98;;;8.77;;
3329;SDS011;1677;49.576;10.990;2022-12-07T13:51:17;11.88;;;8.35;;
3329;SDS011;1677;49.576;10.990;2022-12-07T13:53:50;14.77;;;7.15;;
3329;SDS011;1677;49.576;10.990;2022-12-07T13:56:35;10.55;;;7.72;;
3329;SDS011;1677;49.576;10.990;2022-12-07T13:59:01;8.90;;;7.40;;
3329;SDS011;1677;49.576;10.990;2022-12-07T14:01:28;10.23;;;7.75;;
3329;SDS011;1677;49.576;10.990;2022-12-07T14:03:55;9.60;;;6.93;;
3329;SDS011;1677;49.576;10.990;2022-12-07T14:06:50;13.68;;;7.00;;
3329;SDS011;1677;49.576;10.990;2022-12-07T14:11:44;11.13;;;7.22;;
3329;SDS011;1677;49.576;10.990;2022-12-07T14:14:10;14.48;;;8.60;;
3329;SDS011;1677;49.576;10.990;2022-12-07T14:16:41;10.13;;;8.15;;
3329;SDS011;1677;49.576;10.990;2022-12-07T14:22:20;11.27;;;7.88;;
3329;SDS011;1677;49.576;10.990;2022-12-07T14:24:58;12.20;;;6.82;;
3329;SDS011;1677;49.576;10.990;2022-12-07T14:27:29;10.35;;;7.00;;
3329;SDS011;1677;49.576;10.990;2022-12-07T14:29:58;9.25;;;6.93;;
3329;SDS011;1677;49.576;10.990;2022-12-07T14:32:26;7.65;;;6.75;;
3329;SDS011;1677;49.576;10.990;2022-12-07T14:34:54;10.48;;;7.20;;
3329;SDS011;1677;49.576;10.990;2022-12-07T14:37:21;10.45;;;6.30;;
3329;SDS011;1677;49.576;10.990;2022-12-07T14:39:47;9.93;;;6.20;;
3329;SDS011;1677;49.576;10.990;2022-12-07T14:42:12;10.30;;;7.00;;
3329;SDS011;1677;49.576;10.990;2022-12-07T14:44:38;8.90;;;6.10;;
3329;SDS011;1677;49.576;10.990;2022-12-07T14:47:03;7.33;;;5.70;;
3329;SDS011;1677;49.576;10.990;2022-12-07T14:49:29;8.07;;;6.10;;
3329;SDS011;1677;49.576;10.990;2022-12-07T14:51:54;7.23;;;6.00;;
3329;SDS011;1677;49.576;10.990;2022-12-07T14:54:20;8.13;;;6.00;;
3329;SDS011;1677;49.576;10.990;2022-12-07T14:56:51;8.73;;;6.00;;
3329;SDS011;1677;49.576;10.990;2022-12-07T14:59:16;6.67;;;4.97;;
3329;SDS011;1677;49.576;10.990;2022-12-07T15:01:43;10.75;;;5.60;;
3329;SDS011;1677;49.576;10.990;2022-12-07T15:04:09;6.35;;;5.30;;
3329;SDS011;1677;49.576;10.990;2022-12-07T15:06:35;7.23;;;5.77;;
3329;SDS011;1677;49.576;10.990;2022-12-07T15:09:01;7.10;;;4.97;;
3329;SDS011;1677;49.576;10.990;2022-12-07T15:11:27;11.60;;;5.45;;
3329;SDS011;1677;49.576;10.990;2022-12-07T15:13:53;7.03;;;5.40;;
3329;SDS011;1677;49.576;10.990;2022-12-07T15:16:34;7.57;;;5.15;;
3329;SDS011;1677;49.576;10.990;2022-12-07T15:19:00;9.10;;;5.65;;
3329;SDS011;1677;49.576;10.990;2022-12-07T15:21:26;8.10;;;6.40;;
3329;SDS011;1677;49.576;10.990;2022-12-07T15:23:52;8.83;;;6.37;;
3329;SDS011;1677;49.576;10.990;2022-12-07T15:26:18;10.98;;;7.57;;
3329;SDS011;1677;49.576;10.990;2022-12-07T15:28:44;8.00;;;6.90;;
3329;SDS011;1677;49.576;10.990;2022-12-07T15:31:13;9.67;;;6.53;;
3329;SDS011;1677;49.576;10.990;2022-12-07T15:33:40;10.05;;;6.75;;
3329;SDS011;1677;49.576;10.990;2022-12-07T15:36:06;9.07;;;6.40;;
3329;SDS011;1677;49.576;10.990;2022-12-07T15:38:32;12.23;;;7.53;;
3329;SDS011;1677;49.576;10.990;2022-12-07T15:40:57;14.07;;;8.43;;
3329;SDS011;1677;49.576;10.990;2022-12-07T15:43:23;11.03;;;8.40;;
3329;SDS011;1677;49.576;10.990;2022-12-07T15:46:07;12.23;;;7.72;;
3329;SDS011;1677;49.576;10.990;2022-12-07T15:48:32;12.63;;;8.47;;
3329;SDS011;1677;49.576;10.990;2022-12-07T15:51:04;12.67;;;8.60;;
3329;SDS011;1677;49.576;10.990;2022-12-07T15:53:31;12.80;;;7.65;;
3329;SDS011;1677;49.576;10.990;2022-12-07T15:55:58;11.65;;;7.75;;
3329;SDS011;1677;49.576;10.990;2022-12-07T15:58:23;12.80;;;7.60;;
3329;SDS011;1677;49.576;10.990;2022-12-07T16:00:49;8.20;;;7.03;;
3329;SDS011;1677;49.576;10.990;2022-12-07T16:03:15;12.57;;;8.40;;
3329;SDS011;1677;49.576;10.990;2022-12-07T16:05:40;13.10;;;8.37;;
3329;SDS011;1677;49.576;10.990;2022-12-07T16:08:06;11.40;;;7.47;;
3329;SDS011;1677;49.576;10.990;2022-12-07T16:10:31;11.23;;;8.53;;
3329;SDS011;1677;49.576;10.990;2022-12-07T16:12:57;10.63;;;8.00;;
3329;SDS011;1677;49.576;10.990;2022-12-07T16:15:22;12.87;;;7.70;;
3329;SDS011;1677;49.576;10.990;2022-12-07T16:17:51;14.43;;;8.95;;
3329;SDS011;1677;49.576;10.990;2022-12-07T16:20:17;14.13;;;8.80;;
3329;SDS011;1677;49.576;10.990;2022-12-07T16:22:42;13.40;;;9.20;;
3329;SDS011;1677;49.576;10.990;2022-12-07T16:25:08;14.60;;;9.47;;
3329;SDS011;1677;49.576;10.990;2022-12-07T16:27:34;14.30;;;9.03;;
3329;SDS011;1677;49.576;10.990;2022-12-07T16:30:00;13.30;;;8.35;;
3329;SDS011;1677;49.576;10.990;2022-12-07T16:32:25;13.30;;;9.43;;
3329;SDS011;1677;49.576;10.990;2022-12-07T16:34:51;10.70;;;8.90;;
3329;SDS011;1677;49.576;10.990;2022-12-07T16:37:16;10.53;;;8.60;;
3329;SDS011;1677;49.576;10.990;2022-12-07T16:39:42;11.27;;;8.37;;
3329;SDS011;1677;49.576;10.990;2022-12-07T16:42:07;13.43;;;8.33;;
3329;SDS011;1677;49.576;10.990;2022-12-07T16:44:33;14.80;;;8.80;;
3329;SDS011;1677;49.576;10.990;2022-12-07T16:46:58;11.67;;;9.57;;
3329;SDS011;1677;49.576;10.990;2022-12-07T16:49:25;13.38;;;8.90;;
3329;SDS011;1677;49.576;10.990;2022-12-07T16:51:51;13.67;;;9.77;;
3329;SDS011;1677;49.576;10.990;2022-12-07T16:54:17;16.98;;;9.18;;
3329;SDS011;1677;49.576;10.990;2022-12-07T16:56:42;15.50;;;10.47;;
3329;SDS011;1677;49.576;10.990;2022-12-07T16:59:08;14.20;;;10.10;;
3329;SDS011;1677;49.576;10.990;2022-12-07T17:01:33;14.73;;;11.10;;
3329;SDS011;1677;49.576;10.990;2022-12-07T17:03:59;12.43;;;9.37;;
3329;SDS011;1677;49.576;10.990;2022-12-07T17:06:26;13.88;;;9.55;;